createdAt,value
2018-05-25T00:00:32.971Z,31.90
2018-05-25T00:03:02.196Z,30.07
2018-05-25T00:05:31.447Z,33.67
2018-05-25T00:08:01.450Z,28.90
2018-05-25T00:10:31.436Z,32.37
2018-05-25T00:13:00.654Z,30.47
2018-05-25T00:15:30.632Z,30.47
2018-05-25T00:17:59.822Z,29.43
2018-05-25T00:20:29.054Z,31.30
2018-05-25T00:22:59.053Z,34.00
2018-05-25T00:25:28.399Z,30.73
2018-05-25T00:27:57.744Z,31.50
2018-05-25T00:30:26.969Z,30.73
2018-05-25T00:32:56.311Z,29.30
2018-05-25T00:35:25.728Z,29.67
2018-05-25T00:37:54.932Z,30.67
2018-05-25T00:40:24.300Z,27.17
2018-05-25T00:42:53.521Z,26.97
2018-05-25T00:45:22.725Z,32.13
2018-05-25T00:47:52.060Z,31.03
2018-05-25T00:50:21.376Z,30.60
2018-05-25T00:52:50.581Z,30.97
2018-05-25T00:55:37.695Z,28.87
2018-05-25T00:58:07.682Z,29.87
2018-05-25T01:00:36.896Z,28.40
2018-05-25T01:03:06.125Z,28.90
2018-05-25T01:05:35.345Z,27.83
2018-05-25T01:08:04.556Z,29.07
2018-05-25T01:10:33.801Z,28.03
2018-05-25T01:13:03.802Z,28.53
2018-05-25T01:15:33.022Z,28.73
2018-05-25T01:18:03.012Z,25.53
2018-05-25T01:20:32.376Z,26.40
2018-05-25T01:23:01.609Z,27.77
2018-05-25T01:25:30.829Z,25.90
2018-05-25T01:28:00.875Z,26.20
2018-05-25T01:30:30.245Z,24.10
2018-05-25T01:33:00.448Z,26.23
2018-05-25T01:35:30.425Z,26.90
2018-05-25T01:37:59.666Z,26.63
2018-05-25T01:40:28.872Z,27.90
2018-05-25T01:42:58.917Z,29.07
2018-05-25T01:45:28.226Z,27.30
2018-05-25T01:47:57.478Z,26.90
2018-05-25T01:50:26.717Z,26.37
2018-05-25T01:52:56.141Z,27.60
2018-05-25T01:55:25.506Z,26.83
2018-05-25T01:57:54.745Z,25.30
2018-05-25T02:00:24.089Z,25.20
2018-05-25T02:02:54.115Z,26.80
2018-05-25T02:05:24.089Z,29.40
2018-05-25T02:07:53.326Z,29.60
2018-05-25T02:10:22.618Z,29.43
2018-05-25T02:12:52.829Z,28.60
2018-05-25T02:15:22.068Z,28.60
2018-05-25T02:17:51.280Z,28.07
2018-05-25T02:20:20.505Z,30.33
2018-05-25T02:22:49.789Z,29.77
2018-05-25T02:25:19.017Z,29.50
2018-05-25T02:27:48.253Z,29.43
2018-05-25T02:30:17.479Z,30.37
2018-05-25T02:32:46.693Z,31.77
2018-05-25T02:35:15.941Z,32.23
2018-05-25T02:37:45.906Z,29.80
2018-05-25T02:40:15.141Z,30.50
2018-05-25T02:42:45.118Z,29.47
2018-05-25T02:45:14.578Z,28.53
2018-05-25T02:47:43.823Z,30.07
2018-05-25T02:50:13.037Z,30.77
2018-05-25T02:52:42.292Z,32.13
2018-05-25T02:55:11.529Z,30.27
2018-05-25T02:57:41.538Z,31.70
2018-05-25T03:00:10.784Z,32.80
2018-05-25T03:02:40.050Z,30.57
2018-05-25T03:05:09.273Z,31.93
2018-05-25T03:07:38.535Z,27.73
2018-05-25T03:10:07.801Z,29.70
2018-05-25T03:12:36.998Z,29.43
2018-05-25T03:15:06.361Z,28.97
2018-05-25T03:17:35.839Z,31.07
2018-05-25T03:20:05.026Z,29.33
2018-05-25T03:22:34.257Z,28.23
2018-05-25T03:25:04.233Z,28.60
2018-05-25T03:27:33.473Z,24.83
2018-05-25T03:30:03.467Z,29.93
2018-05-25T03:32:32.704Z,27.90
2018-05-25T03:35:01.995Z,29.33
2018-05-25T03:37:31.349Z,27.00
2018-05-25T03:40:00.552Z,30.63
2018-05-25T03:42:29.978Z,30.40
2018-05-25T03:45:00.025Z,29.90
2018-05-25T03:47:29.269Z,28.67
2018-05-25T03:49:58.530Z,28.20
2018-05-25T03:52:27.766Z,29.23
2018-05-25T03:54:56.993Z,28.07
2018-05-25T03:57:26.320Z,28.27
2018-05-25T04:00:13.346Z,29.90
2018-05-25T04:02:42.684Z,28.13
2018-05-25T04:05:12.685Z,28.97
2018-05-25T04:07:42.087Z,31.60
2018-05-25T04:10:11.378Z,29.23
2018-05-25T04:12:40.689Z,30.90
2018-05-25T04:15:10.707Z,28.77
2018-05-25T04:17:41.754Z,28.33
2018-05-25T04:20:10.988Z,26.60
2018-05-25T04:22:41.048Z,29.03
2018-05-25T04:25:10.329Z,29.20
2018-05-25T04:27:39.561Z,29.90
2018-05-25T04:30:08.831Z,30.60
2018-05-25T04:32:38.079Z,30.07
2018-05-25T04:35:07.323Z,31.27
2018-05-25T04:37:36.711Z,33.23
2018-05-25T04:40:05.969Z,31.50
2018-05-25T04:42:35.200Z,32.77
2018-05-25T04:45:05.302Z,32.67
2018-05-25T04:47:35.379Z,33.30
2018-05-25T04:50:04.817Z,33.97
2018-05-25T04:52:34.841Z,33.43
2018-05-25T04:55:04.837Z,33.30
2018-05-25T04:57:34.086Z,34.47
2018-05-25T05:00:03.331Z,35.40
2018-05-25T05:02:32.554Z,33.00
2018-05-25T05:05:02.600Z,33.67
2018-05-25T05:07:31.911Z,30.70
2018-05-25T05:10:01.205Z,31.67
2018-05-25T05:12:30.414Z,31.77
2018-05-25T05:14:59.648Z,33.73
2018-05-25T05:17:28.919Z,31.87
2018-05-25T05:19:58.153Z,30.23
2018-05-25T05:22:28.207Z,30.30
2018-05-25T05:24:57.528Z,30.03
2018-05-25T05:27:26.889Z,29.40
2018-05-25T05:29:56.851Z,29.57
2018-05-25T05:32:26.880Z,31.47
2018-05-25T05:34:56.138Z,27.80
2018-05-25T05:37:25.375Z,30.10
2018-05-25T05:39:54.577Z,28.30
2018-05-25T05:42:23.848Z,28.20
2018-05-25T05:44:53.056Z,26.53
2018-05-25T05:47:22.278Z,28.47
2018-05-25T05:49:51.520Z,26.80
2018-05-25T05:52:20.740Z,27.33
2018-05-25T05:54:50.382Z,26.23
2018-05-25T05:57:19.605Z,29.83
2018-05-25T05:59:49.662Z,26.10
2018-05-25T06:02:18.996Z,28.83
2018-05-25T06:04:49.731Z,29.23
2018-05-25T06:07:18.953Z,27.57
2018-05-25T06:09:48.946Z,26.80
2018-05-25T06:12:19.695Z,26.27
2018-05-25T06:14:48.969Z,23.63
2018-05-25T06:17:18.203Z,22.23
2018-05-25T06:19:47.441Z,23.33
2018-05-25T06:22:16.693Z,23.00
2018-05-25T06:24:46.798Z,19.83
2018-05-25T06:27:16.023Z,19.43
2018-05-25T06:29:46.035Z,19.70
2018-05-25T06:32:15.988Z,19.00
2018-05-25T06:34:45.308Z,19.50
2018-05-25T06:37:14.541Z,18.70
2018-05-25T06:39:44.540Z,19.47
2018-05-25T06:42:13.741Z,18.50
2018-05-25T06:44:44.697Z,17.47
2018-05-25T06:47:14.077Z,17.17
2018-05-25T06:49:43.295Z,18.03
2018-05-25T06:52:12.570Z,16.50
2018-05-25T06:54:41.779Z,16.87
2018-05-25T06:57:12.023Z,16.43
2018-05-25T06:59:42.003Z,16.23
2018-05-25T07:02:11.200Z,14.47
2018-05-25T07:04:40.416Z,15.77
2018-05-25T07:07:09.636Z,16.03
2018-05-25T07:09:38.881Z,15.10
2018-05-25T07:12:08.081Z,13.83
2018-05-25T07:14:37.299Z,15.43
2018-05-25T07:17:06.647Z,15.57
2018-05-25T07:19:36.039Z,16.40
2018-05-25T07:22:05.311Z,16.20
2018-05-25T07:24:34.505Z,14.93
2018-05-25T07:27:04.501Z,15.03
2018-05-25T07:29:33.773Z,16.47
2018-05-25T07:32:02.955Z,16.53
2018-05-25T07:34:32.185Z,15.00
2018-05-25T07:37:01.439Z,13.50
2018-05-25T07:39:31.407Z,15.30
2018-05-25T07:42:00.642Z,15.70
2018-05-25T07:44:29.886Z,15.43
2018-05-25T07:46:59.174Z,15.20
2018-05-25T07:49:28.660Z,13.73
2018-05-25T07:51:57.875Z,14.17
2018-05-25T07:54:27.141Z,14.10
2018-05-25T07:56:56.290Z,13.10
2018-05-25T07:59:27.052Z,13.73
2018-05-25T08:01:56.356Z,13.33
2018-05-25T08:04:26.352Z,15.50
2018-05-25T08:06:55.551Z,15.83
2018-05-25T08:09:24.829Z,16.57
2018-05-25T08:11:54.082Z,15.93
2018-05-25T08:14:23.482Z,15.90
2018-05-25T08:16:52.673Z,18.23
2018-05-25T08:19:21.884Z,17.27
2018-05-25T08:21:51.187Z,17.80
2018-05-25T08:24:20.437Z,17.67
2018-05-25T08:26:49.672Z,18.40
2018-05-25T08:29:19.653Z,18.00
2018-05-25T08:31:48.897Z,18.47
2018-05-25T08:34:18.117Z,17.97
2018-05-25T08:36:47.341Z,16.53
2018-05-25T08:39:16.569Z,16.97
2018-05-25T08:41:46.613Z,15.47
2018-05-25T08:44:15.846Z,16.03
2018-05-25T08:46:45.098Z,17.43
2018-05-25T08:49:14.346Z,16.87
2018-05-25T08:51:43.538Z,16.07
2018-05-25T08:54:13.573Z,16.53
2018-05-25T08:56:43.570Z,16.27
2018-05-25T08:59:13.069Z,15.63
2018-05-25T09:01:42.322Z,16.70
2018-05-25T09:04:11.556Z,17.03
2018-05-25T09:06:40.817Z,15.97
2018-05-25T09:09:10.836Z,16.80
2018-05-25T09:11:40.091Z,16.50
2018-05-25T09:14:10.818Z,16.00
2018-05-25T09:16:40.032Z,16.07
2018-05-25T09:19:09.319Z,15.10
2018-05-25T09:21:38.650Z,14.43
2018-05-25T09:24:07.806Z,13.47
2018-05-25T09:26:37.017Z,15.60
2018-05-25T09:29:06.249Z,14.37
2018-05-25T09:31:36.581Z,16.40
2018-05-25T09:34:06.055Z,16.03
2018-05-25T09:36:35.261Z,14.70
2018-05-25T09:39:05.299Z,17.80
2018-05-25T09:41:34.674Z,16.80
2018-05-25T09:44:04.860Z,16.77
2018-05-25T09:46:34.070Z,17.50
2018-05-25T09:49:03.399Z,17.40
2018-05-25T09:51:32.717Z,14.57
2018-05-25T09:54:01.920Z,15.23
2018-05-25T09:56:31.189Z,15.10
2018-05-25T09:59:01.181Z,14.47
2018-05-25T10:01:30.417Z,14.43
2018-05-25T10:04:00.521Z,14.90
2018-05-25T10:06:30.582Z,14.87
2018-05-25T10:08:59.813Z,14.70
2018-05-25T10:11:29.228Z,12.80
2018-05-25T10:13:58.462Z,11.43
2018-05-25T10:16:27.713Z,11.27
2018-05-25T10:18:56.957Z,13.20
2018-05-25T10:21:26.201Z,14.67
2018-05-25T10:23:55.429Z,15.67
2018-05-25T10:26:24.709Z,14.20
2018-05-25T10:28:53.958Z,14.43
2018-05-25T10:31:23.308Z,14.10
2018-05-25T10:33:52.540Z,13.67
2018-05-25T10:36:22.618Z,15.23
2018-05-25T10:38:51.811Z,16.23
2018-05-25T10:41:22.163Z,15.13
2018-05-25T10:43:52.137Z,15.20
2018-05-25T10:46:21.415Z,15.87
2018-05-25T10:48:51.354Z,15.83
2018-05-25T10:51:20.605Z,14.37
2018-05-25T10:53:50.625Z,15.43
2018-05-25T10:56:19.866Z,14.60
2018-05-25T10:58:49.199Z,14.47
2018-05-25T11:01:18.427Z,14.97
2018-05-25T11:03:47.706Z,14.00
2018-05-25T11:06:17.017Z,12.90
2018-05-25T11:08:46.288Z,10.73
2018-05-25T11:11:15.594Z,11.20
2018-05-25T11:13:45.049Z,11.80
2018-05-25T11:16:14.298Z,12.73
2018-05-25T11:18:43.537Z,13.50
2018-05-25T11:21:12.762Z,12.57
2018-05-25T11:23:42.022Z,11.87
2018-05-25T11:26:11.187Z,13.67
2018-05-25T11:28:40.455Z,12.20
2018-05-25T11:31:09.693Z,12.60
2018-05-25T11:33:39.688Z,12.17
2018-05-25T11:36:08.898Z,12.17
2018-05-25T11:38:38.109Z,11.03
2018-05-25T11:41:08.197Z,12.13
2018-05-25T11:43:37.425Z,12.43
2018-05-25T11:46:07.417Z,11.13
2018-05-25T11:48:37.625Z,14.27
2018-05-25T11:51:06.852Z,12.03
2018-05-25T11:53:36.946Z,12.80
2018-05-25T11:56:06.153Z,11.90
2018-05-25T11:58:35.485Z,10.80
2018-05-25T12:01:04.759Z,11.17
2018-05-25T12:03:33.990Z,9.80
2018-05-25T12:06:03.231Z,11.90
2018-05-25T12:08:32.574Z,12.80
2018-05-25T12:11:02.559Z,11.83
2018-05-25T12:13:31.869Z,11.43
2018-05-25T12:16:01.083Z,11.77
2018-05-25T12:18:31.102Z,10.97
2018-05-25T12:21:00.301Z,9.83
2018-05-25T12:23:30.301Z,9.60
2018-05-25T12:25:59.633Z,9.20
2018-05-25T12:28:29.616Z,8.20
2018-05-25T12:30:58.844Z,9.00
2018-05-25T12:33:28.840Z,9.10
2018-05-25T12:35:58.000Z,9.60
2018-05-25T12:38:27.312Z,11.90
2018-05-25T12:40:56.553Z,11.20
2018-05-25T12:43:26.487Z,10.20
2018-05-25T12:45:55.760Z,11.90
2018-05-25T12:48:24.945Z,11.23
2018-05-25T12:50:55.728Z,11.03
2018-05-25T12:53:25.185Z,11.83
2018-05-25T12:55:55.271Z,11.03
2018-05-25T12:58:25.411Z,10.73
2018-05-25T13:00:54.653Z,10.00
2018-05-25T13:03:23.869Z,11.40
2018-05-25T13:05:53.173Z,10.87
2018-05-25T13:08:22.508Z,8.90
2018-05-25T13:10:51.708Z,10.27
2018-05-25T13:13:20.925Z,8.90
2018-05-25T13:15:50.156Z,9.63
2018-05-25T13:18:19.402Z,10.83
2018-05-25T13:20:49.378Z,7.87
2018-05-25T13:23:18.615Z,10.00
2018-05-25T13:25:48.637Z,10.70
2018-05-25T13:28:17.895Z,10.93
2018-05-25T13:30:47.150Z,9.20
2018-05-25T13:33:17.137Z,9.90
2018-05-25T13:35:46.396Z,9.07
2018-05-25T13:38:15.648Z,9.10
2018-05-25T13:40:44.838Z,8.10
2018-05-25T13:43:14.842Z,7.00
2018-05-25T13:45:44.173Z,7.20
2018-05-25T13:48:13.609Z,6.63
2018-05-25T13:50:42.822Z,5.20
2018-05-25T13:53:12.121Z,5.70
2018-05-25T13:55:41.529Z,5.90
2018-05-25T13:58:10.773Z,5.67
2018-05-25T14:00:40.023Z,5.23
2018-05-25T14:03:09.254Z,5.50
2018-05-25T14:05:38.452Z,5.67
2018-05-25T14:08:08.498Z,5.90
2018-05-25T14:10:37.749Z,5.30
2018-05-25T14:13:07.050Z,5.40
2018-05-25T14:15:36.241Z,5.20
2018-05-25T14:18:06.245Z,5.63
2018-05-25T14:20:35.470Z,5.20
2018-05-25T14:23:04.754Z,5.00
2018-05-25T14:25:33.999Z,5.67
2018-05-25T14:28:03.230Z,5.50
2018-05-25T14:30:32.476Z,5.50
2018-05-25T14:33:02.475Z,5.57
2018-05-25T14:35:31.997Z,5.70
2018-05-25T14:38:01.143Z,5.43
2018-05-25T14:40:32.088Z,5.47
2018-05-25T14:43:01.358Z,5.90
2018-05-25T14:45:31.281Z,5.80
2018-05-25T14:48:00.512Z,5.57
2018-05-25T14:50:33.134Z,5.60
2018-05-25T14:53:05.324Z,6.37
2018-05-25T14:55:34.603Z,5.53
2018-05-25T14:58:03.810Z,6.00
2018-05-25T15:00:33.033Z,5.80
2018-05-25T15:03:03.478Z,5.63
2018-05-25T15:05:33.620Z,5.50
2018-05-25T15:08:05.105Z,5.43
2018-05-25T15:10:34.357Z,5.83
2018-05-25T15:13:03.753Z,5.13
2018-05-25T15:15:32.980Z,5.50
2018-05-25T15:18:02.997Z,5.63
2018-05-25T15:20:32.228Z,5.60
2018-05-25T15:23:01.484Z,7.40
2018-05-25T15:25:30.683Z,6.73
2018-05-25T15:28:00.693Z,6.47
2018-05-25T15:30:29.958Z,6.83
2018-05-25T15:32:59.922Z,7.37
2018-05-25T15:35:29.898Z,6.03
2018-05-25T15:37:59.133Z,6.43
2018-05-25T15:40:28.351Z,6.40
2018-05-25T15:42:57.560Z,6.23
2018-05-25T15:45:26.781Z,5.50
2018-05-25T15:47:56.019Z,5.27
2018-05-25T15:50:25.271Z,4.87
2018-05-25T15:52:54.495Z,4.60
2018-05-25T15:55:24.829Z,5.07
2018-05-25T15:57:54.175Z,5.17
2018-05-25T16:00:23.738Z,5.47
2018-05-25T16:02:54.137Z,5.60
2018-05-25T16:05:23.345Z,5.10
2018-05-25T16:07:52.613Z,4.53
2018-05-25T16:10:21.816Z,5.17
2018-05-25T16:12:51.110Z,5.87
2018-05-25T16:15:20.327Z,4.70
2018-05-25T16:17:49.550Z,5.43
2018-05-25T16:20:18.850Z,4.77
2018-05-25T16:22:50.010Z,4.90
2018-05-25T16:25:22.926Z,5.00
2018-05-25T16:27:52.190Z,4.80
2018-05-25T16:30:22.180Z,5.10
2018-05-25T16:32:51.617Z,4.70
2018-05-25T16:35:20.875Z,5.13
2018-05-25T16:37:51.205Z,4.40
2018-05-25T16:40:20.449Z,4.30
2018-05-25T16:42:49.641Z,4.07
2018-05-25T16:45:18.891Z,4.20
2018-05-25T16:47:48.113Z,4.80
2018-05-25T16:50:18.139Z,5.50
2018-05-25T16:52:47.371Z,5.43
2018-05-25T16:55:17.349Z,6.00
2018-05-25T16:57:47.364Z,4.80
2018-05-25T17:00:17.392Z,6.10
2018-05-25T17:02:47.374Z,5.93
2018-05-25T17:05:16.596Z,6.40
2018-05-25T17:07:46.573Z,6.20
2018-05-25T17:10:17.629Z,7.07
2018-05-25T17:12:48.596Z,6.57
2018-05-25T17:15:19.837Z,6.53
2018-05-25T17:17:52.792Z,7.10
2018-05-25T17:20:22.092Z,7.23
2018-05-25T17:22:51.310Z,7.00
2018-05-25T17:25:20.551Z,8.20
2018-05-25T17:27:49.812Z,8.80
2018-05-25T17:30:19.081Z,8.90
2018-05-25T17:32:48.279Z,9.10
2018-05-25T17:35:18.430Z,9.70
2018-05-25T17:37:48.396Z,7.80
2018-05-25T17:40:17.737Z,9.03
2018-05-25T17:42:50.097Z,8.00
2018-05-25T17:45:21.147Z,8.20
2018-05-25T17:47:51.174Z,9.13
2018-05-25T17:50:20.452Z,8.97
2018-05-25T17:52:49.803Z,8.27
2018-05-25T17:55:19.068Z,7.60
2018-05-25T17:57:49.107Z,7.27
2018-05-25T18:00:22.323Z,6.17
2018-05-25T18:02:51.706Z,7.10
2018-05-25T18:05:20.951Z,6.90
2018-05-25T18:07:51.676Z,6.93
2018-05-25T18:10:20.928Z,7.33
2018-05-25T18:12:53.944Z,7.53
2018-05-25T18:15:23.183Z,6.60
2018-05-25T18:17:52.397Z,7.90
2018-05-25T18:20:22.424Z,7.70
2018-05-25T18:22:52.454Z,8.37
2018-05-25T18:25:26.281Z,8.87
2018-05-25T18:27:55.573Z,8.13
2018-05-25T18:30:24.786Z,12.87
2018-05-25T18:32:54.032Z,8.47
2018-05-25T18:35:23.353Z,8.53
2018-05-25T18:37:52.592Z,7.73
2018-05-25T18:40:21.806Z,8.00
2018-05-25T18:42:51.025Z,8.03
2018-05-25T18:45:20.990Z,8.47
2018-05-25T18:47:54.741Z,7.93
2018-05-25T18:50:24.721Z,7.90
2018-05-25T18:52:53.965Z,8.67
2018-05-25T18:55:23.970Z,8.30
2018-05-25T18:57:57.700Z,7.93
2018-05-25T19:00:26.922Z,7.93
2018-05-25T19:02:57.634Z,8.90
2018-05-25T19:05:27.097Z,7.67
2018-05-25T19:07:56.622Z,8.77
2018-05-25T19:10:25.841Z,9.00
2018-05-25T19:12:55.165Z,7.30
2018-05-25T19:15:24.405Z,8.03
2018-05-25T19:17:54.436Z,8.57
2018-05-25T19:20:23.667Z,8.80
2018-05-25T19:22:52.915Z,9.00
2018-05-25T19:25:22.185Z,8.83
2018-05-25T19:27:51.417Z,7.73
2018-05-25T19:30:21.436Z,9.30
2018-05-25T19:32:50.679Z,8.77
2018-05-25T19:35:20.544Z,8.50
2018-05-25T19:37:50.533Z,8.20
2018-05-25T19:40:20.445Z,8.90
2018-05-25T19:42:49.659Z,8.17
2018-05-25T19:45:19.091Z,9.87
2018-05-25T19:47:48.321Z,9.20
2018-05-25T19:50:17.569Z,9.70
2018-05-25T19:52:47.563Z,9.37
2018-05-25T19:55:16.826Z,8.30
2018-05-25T19:57:46.026Z,9.10
2018-05-25T20:00:15.257Z,9.50
2018-05-25T20:02:44.445Z,10.30
2018-05-25T20:05:13.764Z,9.60
2018-05-25T20:07:43.069Z,9.50
2018-05-25T20:10:13.100Z,10.07
2018-05-25T20:12:43.123Z,10.07
2018-05-25T20:15:12.358Z,9.90
2018-05-25T20:17:41.579Z,9.63
2018-05-25T20:20:11.177Z,9.57
2018-05-25T20:22:41.077Z,10.10
2018-05-25T20:25:10.320Z,9.47
2018-05-25T20:27:39.615Z,9.87
2018-05-25T20:30:09.609Z,10.83
2018-05-25T20:32:39.648Z,10.10
2018-05-25T20:35:10.147Z,10.33
2018-05-25T20:37:40.066Z,8.97
2018-05-25T20:40:09.310Z,8.67
2018-05-25T20:42:38.564Z,9.10
2018-05-25T20:45:07.801Z,9.33
2018-05-25T20:47:37.790Z,9.90
2018-05-25T20:50:07.018Z,8.80
2018-05-25T20:52:36.392Z,8.77
2018-05-25T20:55:06.424Z,10.10
2018-05-25T20:57:36.465Z,9.60
2018-05-25T21:00:05.670Z,9.53
2018-05-25T21:02:34.877Z,10.07
2018-05-25T21:05:04.100Z,10.20
2018-05-25T21:07:33.349Z,9.87
2018-05-25T21:10:02.561Z,9.80
2018-05-25T21:12:31.831Z,9.30
2018-05-25T21:15:01.795Z,9.37
2018-05-25T21:17:31.034Z,9.87
2018-05-25T21:20:01.050Z,10.40
2018-05-25T21:22:31.078Z,9.40
2018-05-25T21:25:02.065Z,9.80
2018-05-25T21:27:31.289Z,9.80
2018-05-25T21:30:00.566Z,8.93
2018-05-25T21:32:31.782Z,9.20
2018-05-25T21:35:00.990Z,10.50
2018-05-25T21:37:30.234Z,8.97
2018-05-25T21:39:59.494Z,9.03
2018-05-25T21:42:28.717Z,9.00
2018-05-25T21:44:58.043Z,9.10
2018-05-25T21:47:29.057Z,9.10
2018-05-25T21:49:59.240Z,8.63
2018-05-25T21:52:28.607Z,9.40
2018-05-25T21:54:59.314Z,8.87
2018-05-25T21:57:28.613Z,8.80
2018-05-25T21:59:58.137Z,9.50
2018-05-25T22:02:28.869Z,7.90
2018-05-25T22:04:58.183Z,7.70
2018-05-25T22:07:28.180Z,9.47
2018-05-25T22:09:58.216Z,9.80
2018-05-25T22:12:28.196Z,8.90
2018-05-25T22:14:57.453Z,9.00
2018-05-25T22:17:26.673Z,8.70
2018-05-25T22:19:55.895Z,9.67
2018-05-25T22:22:25.096Z,9.20
2018-05-25T22:24:55.141Z,8.30
2018-05-25T22:27:25.169Z,8.90
2018-05-25T22:29:54.507Z,8.90
2018-05-25T22:32:23.766Z,9.40
2018-05-25T22:34:53.000Z,8.83
2018-05-25T22:37:26.116Z,9.60
2018-05-25T22:39:55.451Z,9.80
2018-05-25T22:42:42.353Z,9.70
2018-05-25T22:45:30.093Z,9.90
2018-05-25T22:48:17.129Z,9.43
2018-05-25T22:51:05.882Z,8.57
2018-05-25T22:53:39.879Z,10.40
2018-05-25T22:56:09.143Z,9.70
2018-05-25T22:58:38.415Z,9.50
2018-05-25T23:01:08.371Z,9.70
2018-05-25T23:03:37.647Z,9.30
2018-05-25T23:06:06.883Z,9.40
2018-05-25T23:08:38.547Z,9.33
2018-05-25T23:11:09.209Z,9.90
2018-05-25T23:13:41.466Z,9.50
2018-05-25T23:16:10.725Z,8.50
2018-05-25T23:18:40.774Z,8.97
2018-05-25T23:21:09.994Z,9.20
2018-05-25T23:23:39.184Z,8.90
2018-05-25T23:26:08.443Z,8.73
2018-05-25T23:28:38.580Z,9.07
2018-05-25T23:31:08.558Z,8.93
2018-05-25T23:33:38.549Z,9.80
2018-05-25T23:36:07.810Z,9.40
2018-05-25T23:38:37.012Z,8.77
2018-05-25T23:41:09.127Z,9.50
2018-05-25T23:43:38.448Z,9.93
2018-05-25T23:46:08.427Z,8.77
2018-05-25T23:48:37.696Z,9.07
2018-05-25T23:51:06.981Z,9.17
2018-05-25T23:53:36.220Z,8.67
2018-05-25T23:56:06.233Z,7.90
2018-05-25T23:58:37.336Z,8.10
